Griffiss International Airport
KRME : now visible

Airfield :











YOU CAN JOIN US ON...

 
LOGIN :

Register | Disclaimer

   EN    FR    IT 

 









Legend :    VFR   Marginal VFR   IFR   Intensive IFR   Very Intensive IFR
Visi :
Ceiling :
>= 8 km
>= 3000ft
5 to 8 km
1000 to 3000 ft
1500m to 5 km
500 to 1000 ft
800 to 1500m
200 to 500 ft
< 800m
< 200 ft
Symbols :   Thunderstorms  Fog  Heavy snow  Heavy precipitations  Wind > 20 kt







- Airport Elevation : 504 ft


KRME - Griffiss International

CURRENT METAR :
  • 211053Z 13004KT 10SM CLR 10/10 A3025 RMK AO2 SLP242 T01000100

EXPIRED METARs :
  • 210953Z AUTO 00000KT 10SM CLR 10/10 A3025 RMK AO2 SLP240 T01000100
  • 210853Z AUTO 00000KT 10SM CLR 12/12 A3024 RMK AO2 SLP236 T01170117 55001

TAF KRME
Valid from the 21 at 09:00 until the 22 at 06:00 UTC


210855Z 2109/2206 00000KT P6SM FEW250
No reported NOTAMs for that airfield.



MET'MAP, your aeronautical weather chart ! - Copyright ORBIFLY December 2007 - Disclaimer

ORBIFLY MET'MAP TEAM :

Programming & Development : Alexandra Zaïnal
Concept & Development : Baudouin d'Aumeries
Co-Development & Prog : Marc-Olivier Méhu
Technical & hardware support : Manuel Goepfert

Contact : metmap@orbifly.com




SOURCES & CREDITS :

   NOAA       Earth
Advisory